CPX244 Details

Departure: Norman Manley International Airport (MKJP)
Arrival: Miami International Airport (KMIA)
Route: UCA UA301 URSUS FLIPR6


Current Weather Information
MKJP 251000Z 35008KT 9999 FEW022 BKN100 25/21 Q1011
KMIA 251053Z VRB04KT 10SM SCT030 25/18 A3004 RMK AO2 SLP174 T02500178 $